createdAt,value
2018-08-03T00:00:18.292Z,5.33
2018-08-03T00:00:52.494Z,4.07
2018-08-03T00:01:26.329Z,4.60
2018-08-03T00:02:00.503Z,4.27
2018-08-03T00:02:34.378Z,5.33
2018-08-03T00:03:08.296Z,4.53
2018-08-03T00:03:42.146Z,4.90
2018-08-03T00:04:16.673Z,5.33
2018-08-03T00:04:50.522Z,4.60
2018-08-03T00:05:24.379Z,4.60
2018-08-03T00:05:58.258Z,4.63
2018-08-03T00:06:32.343Z,4.90
2018-08-03T00:07:06.418Z,5.10
2018-08-03T00:07:40.709Z,4.47
2018-08-03T00:08:14.554Z,5.10
2018-08-03T00:08:48.776Z,4.60
2018-08-03T00:09:23.034Z,4.50
2018-08-03T00:09:57.121Z,5.07
2018-08-03T00:10:31.630Z,5.43
2018-08-03T00:11:05.881Z,5.23
2018-08-03T00:11:39.949Z,5.50
2018-08-03T00:12:13.860Z,4.80
2018-08-03T00:12:47.760Z,5.03
2018-08-03T00:13:21.896Z,4.60
2018-08-03T00:13:56.126Z,4.90
2018-08-03T00:14:30.057Z,5.40
2018-08-03T00:15:04.671Z,5.53
2018-08-03T00:15:38.547Z,4.73
2018-08-03T00:16:12.542Z,4.70
2018-08-03T00:16:46.460Z,4.10
2018-08-03T00:17:20.403Z,5.43
2018-08-03T00:17:54.344Z,4.40
2018-08-03T00:18:28.555Z,4.90
2018-08-03T00:19:03.241Z,4.23
2018-08-03T00:19:37.978Z,4.40
2018-08-03T00:20:12.246Z,4.10
2018-08-03T00:20:46.490Z,4.73
2018-08-03T00:21:20.392Z,4.70
2018-08-03T00:21:54.267Z,4.77
2018-08-03T00:22:28.546Z,4.80
2018-08-03T00:23:02.436Z,4.37
2018-08-03T00:23:37.304Z,4.13
2018-08-03T00:24:11.262Z,4.67
2018-08-03T00:24:45.177Z,5.20
2018-08-03T00:25:19.596Z,4.50
2018-08-03T00:25:53.847Z,5.20
2018-08-03T00:26:27.916Z,5.07
2018-08-03T00:27:02.182Z,4.60
2018-08-03T00:27:36.431Z,4.33
2018-08-03T00:28:10.301Z,4.97
2018-08-03T00:28:44.282Z,4.73
2018-08-03T00:29:18.548Z,4.67
2018-08-03T00:29:52.393Z,4.37
2018-08-03T00:30:26.622Z,5.00
2018-08-03T00:31:00.688Z,5.20
2018-08-03T00:31:35.013Z,5.20
2018-08-03T00:32:08.904Z,5.27
2018-08-03T00:32:42.800Z,5.07
2018-08-03T00:33:17.049Z,4.97
2018-08-03T00:33:51.366Z,4.93
2018-08-03T00:34:29.842Z,5.00
2018-08-03T00:35:03.858Z,4.90
2018-08-03T00:35:37.748Z,5.70
2018-08-03T00:36:11.972Z,4.90
2018-08-03T00:36:46.254Z,4.90
2018-08-03T00:37:20.130Z,5.33
2018-08-03T00:37:54.028Z,5.37
2018-08-03T00:38:27.930Z,5.20
2018-08-03T00:39:01.807Z,5.13
2018-08-03T00:39:35.738Z,5.27
2018-08-03T00:40:09.660Z,4.80
2018-08-03T00:40:43.950Z,5.30
2018-08-03T00:41:17.806Z,4.57
2018-08-03T00:41:51.680Z,4.80
2018-08-03T00:42:25.652Z,4.80
2018-08-03T00:42:59.890Z,5.40
2018-08-03T00:43:33.768Z,4.60
2018-08-03T00:44:07.370Z,5.13
2018-08-03T00:44:41.505Z,5.30
2018-08-03T00:45:15.382Z,4.60
2018-08-03T00:45:49.498Z,5.30
2018-08-03T00:46:23.700Z,5.27
2018-08-03T00:46:57.610Z,4.73
2018-08-03T00:47:31.530Z,5.00
2018-08-03T00:48:05.732Z,4.50
2018-08-03T00:48:39.612Z,4.80
2018-08-03T00:49:13.496Z,4.90
2018-08-03T00:49:47.454Z,5.40
2018-08-03T00:50:21.643Z,4.50
2018-08-03T00:50:55.858Z,5.07
2018-08-03T00:51:30.000Z,5.03
2018-08-03T00:52:03.932Z,5.03
2018-08-03T00:52:37.846Z,4.40
2018-08-03T00:53:12.092Z,4.97
2018-08-03T00:53:47.714Z,4.53
2018-08-03T00:54:21.602Z,4.57
2018-08-03T00:54:55.826Z,5.10
2018-08-03T00:55:29.744Z,5.00
2018-08-03T00:56:04.580Z,4.80
2018-08-03T00:56:38.798Z,5.73
2018-08-03T00:57:13.022Z,4.77
2018-08-03T00:57:46.918Z,4.83
2018-08-03T00:58:20.930Z,4.90
2018-08-03T00:58:54.796Z,5.20
2018-08-03T00:59:29.090Z,4.77
2018-08-03T01:00:03.111Z,4.17
2018-08-03T01:00:37.390Z,5.23
2018-08-03T01:01:11.678Z,4.50
2018-08-03T01:01:45.704Z,5.03
2018-08-03T01:02:19.606Z,5.20
2018-08-03T01:02:53.569Z,5.10
2018-08-03T01:03:28.114Z,4.20
2018-08-03T01:04:02.130Z,4.83
2018-08-03T01:04:36.394Z,5.47
2018-08-03T01:05:10.644Z,4.40
2018-08-03T01:05:44.898Z,4.90
2018-08-03T01:06:19.716Z,4.53
2018-08-03T01:06:53.916Z,5.10
2018-08-03T01:07:27.880Z,4.70
2018-08-03T01:08:01.790Z,4.70
2018-08-03T01:08:35.768Z,4.77
2018-08-03T01:09:10.801Z,4.97
2018-08-03T01:09:44.402Z,5.10
2018-08-03T01:10:18.652Z,4.47
2018-08-03T01:10:53.218Z,4.87
2018-08-03T01:11:26.974Z,4.73
2018-08-03T01:12:01.102Z,4.90
2018-08-03T01:12:35.090Z,4.50
2018-08-03T01:13:08.862Z,4.50
2018-08-03T01:13:42.716Z,5.30
2018-08-03T01:14:16.579Z,5.30
2018-08-03T01:14:50.334Z,5.00
2018-08-03T01:15:24.136Z,4.80
2018-08-03T01:15:58.344Z,4.67
2018-08-03T01:16:36.512Z,4.37
2018-08-03T01:17:10.766Z,5.37
2018-08-03T01:17:45.632Z,4.80
2018-08-03T01:18:19.901Z,5.17
2018-08-03T01:18:53.774Z,4.60
2018-08-03T01:19:27.650Z,5.67
2018-08-03T01:20:01.541Z,5.23
2018-08-03T01:20:35.476Z,4.47
2018-08-03T01:21:09.372Z,4.87
2018-08-03T01:21:44.544Z,5.00
2018-08-03T01:22:19.394Z,4.90
2018-08-03T01:22:53.014Z,5.27
2018-08-03T01:23:27.162Z,5.10
2018-08-03T01:24:01.372Z,4.80
2018-08-03T01:24:35.556Z,4.57
2018-08-03T01:25:09.824Z,4.37
2018-08-03T01:25:43.748Z,4.80
2018-08-03T01:26:18.566Z,5.27
2018-08-03T01:26:52.452Z,4.90
2018-08-03T01:27:26.357Z,5.07
2018-08-03T01:28:00.570Z,5.03
2018-08-03T01:28:35.134Z,4.83
2018-08-03T01:29:09.106Z,4.97
2018-08-03T01:29:43.022Z,5.13
2018-08-03T01:30:17.685Z,4.90
2018-08-03T01:30:51.916Z,4.57
2018-08-03T01:31:25.808Z,5.13
2018-08-03T01:31:59.677Z,5.03
2018-08-03T01:32:33.534Z,5.23
2018-08-03T01:33:08.107Z,5.27
2018-08-03T01:33:42.082Z,5.43
2018-08-03T01:34:16.268Z,4.77
2018-08-03T01:34:50.188Z,5.40
2018-08-03T01:35:24.435Z,4.80
2018-08-03T01:35:58.412Z,5.03
2018-08-03T01:36:32.348Z,4.50
2018-08-03T01:37:06.292Z,5.70
2018-08-03T01:37:40.222Z,5.30
2018-08-03T01:38:14.084Z,5.13
2018-08-03T01:38:48.307Z,5.43
2018-08-03T01:39:22.152Z,4.90
2018-08-03T01:39:56.028Z,5.50
2018-08-03T01:40:29.987Z,5.40
2018-08-03T01:41:04.232Z,4.80
2018-08-03T01:41:38.500Z,5.10
2018-08-03T01:42:12.698Z,5.50
2018-08-03T01:42:46.894Z,5.50
2018-08-03T01:43:21.062Z,4.60
2018-08-03T01:43:54.992Z,5.00
2018-08-03T01:44:30.015Z,4.63
2018-08-03T01:45:03.902Z,5.30
2018-08-03T01:45:37.751Z,4.80
2018-08-03T01:46:12.005Z,5.17
2018-08-03T01:46:46.015Z,5.47
2018-08-03T01:47:20.306Z,5.00
2018-08-03T01:47:54.144Z,4.90
2018-08-03T01:48:28.043Z,4.90
2018-08-03T01:49:01.882Z,5.10
2018-08-03T01:49:35.764Z,4.50
2018-08-03T01:50:09.995Z,4.80
2018-08-03T01:50:44.195Z,5.00
2018-08-03T01:51:18.128Z,4.53
2018-08-03T01:51:52.633Z,5.13
2018-08-03T01:52:26.923Z,5.50
2018-08-03T01:53:01.140Z,5.70
2018-08-03T01:53:35.002Z,4.70
2018-08-03T01:54:08.928Z,5.50
2018-08-03T01:54:42.780Z,5.53
2018-08-03T01:55:16.644Z,5.40
2018-08-03T01:55:50.248Z,5.07
2018-08-03T01:56:24.392Z,4.90
2018-08-03T01:56:58.224Z,5.00
2018-08-03T01:57:32.076Z,5.07
2018-08-03T01:58:06.627Z,5.00
2018-08-03T01:58:40.598Z,5.10
2018-08-03T01:59:14.783Z,4.70
2018-08-03T01:59:48.804Z,4.90
2018-08-03T02:00:23.029Z,4.60
2018-08-03T02:00:57.300Z,4.83
2018-08-03T02:01:31.604Z,5.03
2018-08-03T02:02:05.890Z,4.83
2018-08-03T02:02:40.099Z,5.10
2018-08-03T02:03:13.966Z,4.70
2018-08-03T02:03:48.969Z,5.27
2018-08-03T02:04:22.633Z,4.87
2018-08-03T02:04:57.074Z,4.73
2018-08-03T02:05:30.944Z,5.40
2018-08-03T02:06:05.171Z,5.40
2018-08-03T02:06:39.079Z,5.17
2018-08-03T02:07:13.289Z,4.97
2018-08-03T02:07:47.266Z,5.87
2018-08-03T02:08:21.450Z,5.70
2018-08-03T02:08:55.089Z,5.07
2018-08-03T02:09:29.458Z,4.97
2018-08-03T02:10:03.303Z,4.73
2018-08-03T02:10:37.491Z,4.43
2018-08-03T02:11:11.415Z,5.37
2018-08-03T02:11:45.344Z,5.40
2018-08-03T02:12:19.244Z,5.10
2018-08-03T02:12:56.440Z,5.03
2018-08-03T02:13:30.683Z,5.37
2018-08-03T02:14:04.561Z,5.30
2018-08-03T02:14:38.500Z,5.30
2018-08-03T02:15:12.521Z,4.80
2018-08-03T02:15:46.958Z,5.13
2018-08-03T02:16:20.953Z,5.03
2018-08-03T02:16:55.177Z,5.07
2018-08-03T02:17:29.039Z,6.00
2018-08-03T02:18:03.235Z,5.50
2018-08-03T02:18:37.094Z,5.40
2018-08-03T02:19:11.271Z,5.50
2018-08-03T02:19:45.169Z,5.40
2018-08-03T02:20:19.398Z,4.60
2018-08-03T02:20:53.260Z,5.63
2018-08-03T02:21:27.269Z,5.47
2018-08-03T02:22:01.179Z,5.10
2018-08-03T02:22:35.039Z,4.63
2018-08-03T02:23:09.004Z,5.13
2018-08-03T02:23:42.865Z,5.00
2018-08-03T02:24:16.483Z,4.77
2018-08-03T02:24:50.804Z,4.50
2018-08-03T02:25:25.364Z,5.40
2018-08-03T02:25:59.324Z,5.10
2018-08-03T02:26:33.128Z,5.50
2018-08-03T02:27:07.020Z,5.30
2018-08-03T02:27:41.290Z,4.53
2018-08-03T02:28:15.487Z,5.57
2018-08-03T02:28:49.466Z,4.60
2018-08-03T02:29:23.690Z,5.23
2018-08-03T02:29:57.542Z,5.13
2018-08-03T02:30:31.764Z,5.20
2018-08-03T02:31:06.007Z,5.50
2018-08-03T02:31:40.201Z,4.33
2018-08-03T02:32:14.469Z,4.97
2018-08-03T02:32:48.315Z,4.60
2018-08-03T02:33:22.208Z,4.70
2018-08-03T02:33:56.105Z,5.20
2018-08-03T02:34:30.629Z,5.00
2018-08-03T02:35:04.683Z,5.10
2018-08-03T02:35:38.899Z,5.60
2018-08-03T02:36:13.193Z,4.93
2018-08-03T02:36:47.728Z,5.83
2018-08-03T02:37:21.961Z,5.00
2018-08-03T02:37:56.150Z,5.47
2018-08-03T02:38:30.471Z,5.00
2018-08-03T02:39:07.318Z,5.03
2018-08-03T02:39:42.228Z,4.47
2018-08-03T02:40:16.832Z,5.60
2018-08-03T02:40:50.742Z,5.23
2018-08-03T02:41:25.290Z,5.13
2018-08-03T02:41:59.821Z,5.07
2018-08-03T02:42:33.730Z,4.80
2018-08-03T02:43:07.687Z,5.60
2018-08-03T02:43:41.320Z,5.40
2018-08-03T02:44:15.106Z,5.40
2018-08-03T02:44:48.981Z,4.93
2018-08-03T02:45:22.818Z,5.40
2018-08-03T02:45:56.992Z,4.80
2018-08-03T02:46:30.905Z,5.20
2018-08-03T02:47:04.757Z,5.37
2018-08-03T02:47:38.629Z,5.10
2018-08-03T02:48:12.282Z,5.50
2018-08-03T02:48:46.065Z,5.00
2018-08-03T02:49:19.948Z,5.17
2018-08-03T02:49:53.842Z,5.40
2018-08-03T02:50:27.751Z,5.37
2018-08-03T02:51:02.894Z,5.87
2018-08-03T02:51:36.794Z,4.67
2018-08-03T02:52:11.085Z,5.57
2018-08-03T02:52:45.321Z,5.63
2018-08-03T02:53:19.176Z,5.33
2018-08-03T02:53:53.016Z,5.47
2018-08-03T02:54:26.864Z,4.70
2018-08-03T02:55:00.706Z,5.37
2018-08-03T02:55:34.736Z,5.10
2018-08-03T02:56:08.580Z,5.30
2018-08-03T02:56:42.378Z,5.23
2018-08-03T02:57:16.131Z,5.37
2018-08-03T02:57:50.035Z,5.10
2018-08-03T02:58:24.337Z,5.40
2018-08-03T02:58:58.594Z,4.80
2018-08-03T02:59:32.622Z,4.80
2018-08-03T03:00:06.487Z,4.70
2018-08-03T03:00:40.684Z,4.83
2018-08-03T03:01:14.874Z,5.40
2018-08-03T03:01:49.480Z,4.83
2018-08-03T03:02:23.335Z,5.53
2018-08-03T03:02:57.267Z,5.57
2018-08-03T03:03:32.343Z,4.97
2018-08-03T03:04:06.417Z,5.10
2018-08-03T03:04:40.380Z,5.00
2018-08-03T03:05:14.232Z,5.30
2018-08-03T03:05:48.131Z,4.90
2018-08-03T03:06:22.365Z,5.27
2018-08-03T03:06:56.553Z,5.77
2018-08-03T03:07:30.530Z,4.73
2018-08-03T03:08:04.599Z,5.10
2018-08-03T03:08:38.478Z,5.47
2018-08-03T03:09:12.933Z,6.70
2018-08-03T03:09:46.824Z,6.47
2018-08-03T03:10:20.685Z,5.23
2018-08-03T03:10:54.581Z,5.30
2018-08-03T03:11:28.471Z,5.17
2018-08-03T03:12:02.337Z,5.40
2018-08-03T03:12:36.215Z,5.00
2018-08-03T03:13:10.089Z,5.60
2018-08-03T03:13:43.965Z,5.10
2018-08-03T03:14:17.841Z,4.60
2018-08-03T03:14:52.371Z,5.07
2018-08-03T03:15:26.893Z,5.10
2018-08-03T03:16:00.730Z,5.90
2018-08-03T03:16:35.391Z,4.93
2018-08-03T03:17:09.264Z,5.27
2018-08-03T03:17:43.830Z,5.50
2018-08-03T03:18:17.771Z,4.63
2018-08-03T03:18:52.535Z,4.90
2018-08-03T03:19:26.875Z,4.77
2018-08-03T03:20:00.871Z,5.03
2018-08-03T03:20:34.764Z,5.30
2018-08-03T03:21:08.621Z,5.30
2018-08-03T03:21:42.569Z,5.13
2018-08-03T03:22:16.752Z,5.30
2018-08-03T03:22:50.662Z,5.30
2018-08-03T03:23:24.890Z,5.30
2018-08-03T03:23:58.738Z,5.60
2018-08-03T03:24:32.360Z,4.70
2018-08-03T03:25:06.660Z,5.10
2018-08-03T03:25:40.522Z,5.27
2018-08-03T03:26:14.405Z,5.30
2018-08-03T03:26:48.596Z,5.13
2018-08-03T03:27:22.489Z,5.30
2018-08-03T03:27:56.355Z,5.40
2018-08-03T03:28:30.562Z,5.57
2018-08-03T03:29:04.461Z,5.10
2018-08-03T03:29:38.653Z,5.97
2018-08-03T03:30:12.529Z,4.93
2018-08-03T03:30:46.421Z,5.50
2018-08-03T03:31:20.271Z,5.50
2018-08-03T03:31:54.123Z,5.63
2018-08-03T03:32:27.997Z,5.57
2018-08-03T03:33:02.224Z,6.03
2018-08-03T03:33:36.482Z,5.10
2018-08-03T03:34:10.555Z,5.70
2018-08-03T03:34:44.484Z,5.60
2018-08-03T03:35:18.672Z,5.40
2018-08-03T03:35:52.543Z,5.93
2018-08-03T03:36:26.438Z,5.00
2018-08-03T03:37:00.414Z,4.93
2018-08-03T03:37:34.276Z,4.73
2018-08-03T03:38:08.461Z,4.83
2018-08-03T03:38:42.699Z,5.33
2018-08-03T03:39:16.579Z,4.97
2018-08-03T03:39:50.802Z,5.40
2018-08-03T03:40:24.696Z,5.97
2018-08-03T03:40:58.567Z,5.63
2018-08-03T03:41:32.441Z,5.67
2018-08-03T03:42:06.541Z,5.53
2018-08-03T03:42:40.425Z,5.60
2018-08-03T03:43:14.662Z,5.03
2018-08-03T03:43:48.557Z,5.07
2018-08-03T03:44:23.060Z,5.87
2018-08-03T03:44:57.211Z,5.33
2018-08-03T03:45:31.918Z,4.97
2018-08-03T03:46:06.996Z,5.80
2018-08-03T03:46:40.858Z,5.23
2018-08-03T03:47:14.709Z,6.07
2018-08-03T03:47:48.565Z,5.50
2018-08-03T03:48:22.769Z,5.60
2018-08-03T03:48:56.691Z,4.90
2018-08-03T03:49:30.904Z,5.40
2018-08-03T03:50:05.763Z,5.50
2018-08-03T03:50:39.576Z,4.90
2018-08-03T03:51:13.415Z,5.40
2018-08-03T03:51:47.647Z,5.10
2018-08-03T03:52:21.497Z,5.70
2018-08-03T03:52:55.691Z,5.97
2018-08-03T03:53:29.522Z,5.37
2018-08-03T03:54:03.431Z,5.10
2018-08-03T03:54:37.325Z,5.03
2018-08-03T03:55:11.855Z,5.17
2018-08-03T03:55:45.691Z,5.00
2018-08-03T03:56:19.561Z,5.27
2018-08-03T03:56:54.085Z,5.00
2018-08-03T03:57:28.289Z,5.40
2018-08-03T03:58:02.169Z,4.93
2018-08-03T03:58:36.707Z,4.77
2018-08-03T03:59:10.982Z,5.03
2018-08-03T03:59:45.027Z,4.83
2018-08-03T04:00:19.290Z,6.30
2018-08-03T04:00:53.481Z,4.60
2018-08-03T04:01:28.009Z,4.80
2018-08-03T04:02:01.889Z,4.90
2018-08-03T04:02:36.332Z,4.93
2018-08-03T04:03:10.593Z,5.73
2018-08-03T04:03:44.841Z,5.70
2018-08-03T04:04:18.903Z,4.90
2018-08-03T04:04:53.121Z,5.73
2018-08-03T04:05:27.329Z,4.77
2018-08-03T04:06:01.517Z,5.20
2018-08-03T04:06:35.397Z,4.67
2018-08-03T04:07:09.259Z,4.30
2018-08-03T04:07:43.311Z,4.73
2018-08-03T04:08:17.165Z,4.30
2018-08-03T04:08:51.013Z,4.70
2018-08-03T04:09:25.218Z,4.10
2018-08-03T04:09:59.121Z,4.60
2018-08-03T04:10:33.327Z,4.23
2018-08-03T04:11:07.560Z,4.57
2018-08-03T04:11:41.640Z,4.97
2018-08-03T04:12:15.405Z,4.57
2018-08-03T04:12:49.446Z,4.60
2018-08-03T04:13:23.093Z,4.70
2018-08-03T04:13:57.221Z,4.10
2018-08-03T04:14:31.149Z,3.93
2018-08-03T04:15:05.261Z,4.57
2018-08-03T04:15:39.099Z,4.07
2018-08-03T04:16:13.307Z,4.30
2018-08-03T04:16:47.163Z,4.30
2018-08-03T04:17:21.071Z,4.13
2018-08-03T04:17:54.945Z,4.30
2018-08-03T04:18:28.787Z,4.30
2018-08-03T04:19:02.998Z,4.40
2018-08-03T04:19:36.979Z,4.53
2018-08-03T04:20:11.191Z,4.60
2018-08-03T04:20:45.512Z,3.97
2018-08-03T04:21:19.701Z,4.23
2018-08-03T04:21:53.609Z,4.30
2018-08-03T04:22:27.578Z,4.37
2018-08-03T04:23:01.634Z,4.33
2018-08-03T04:23:35.547Z,4.50
2018-08-03T04:24:12.203Z,4.20
2018-08-03T04:24:46.147Z,4.50
2018-08-03T04:25:20.317Z,4.70
2018-08-03T04:25:54.537Z,4.50
2018-08-03T04:26:28.790Z,5.00
2018-08-03T04:27:02.681Z,3.90
2018-08-03T04:27:37.246Z,4.00
2018-08-03T04:28:11.507Z,4.60
2018-08-03T04:28:45.511Z,4.67
2018-08-03T04:30:00.162Z,3.40
2018-08-03T04:30:34.367Z,3.80
2018-08-03T04:31:08.589Z,4.20
2018-08-03T04:31:42.473Z,4.23
2018-08-03T04:32:16.663Z,4.27
2018-08-03T04:32:50.544Z,4.90
2018-08-03T04:33:24.517Z,4.00
2018-08-03T04:33:58.388Z,4.33
2018-08-03T04:34:32.281Z,4.33
2018-08-03T04:35:06.257Z,4.73
2018-08-03T04:35:40.535Z,4.17
2018-08-03T04:36:14.395Z,3.87
2018-08-03T04:36:48.271Z,4.37
2018-08-03T04:37:22.517Z,4.10
2018-08-03T04:37:56.375Z,4.17
2018-08-03T04:38:30.271Z,4.97
2018-08-03T04:39:05.682Z,4.30
2018-08-03T04:39:40.033Z,4.03
2018-08-03T04:40:13.969Z,4.27
2018-08-03T04:40:47.979Z,4.73
2018-08-03T04:41:22.497Z,3.80
2018-08-03T04:41:56.725Z,4.10
2018-08-03T04:42:30.724Z,4.40
2018-08-03T04:43:04.517Z,4.00
2018-08-03T04:43:38.341Z,4.20
2018-08-03T04:44:12.180Z,3.90
2018-08-03T04:44:46.072Z,4.13
2018-08-03T04:45:20.355Z,4.70
2018-08-03T04:45:54.291Z,4.03
2018-08-03T04:46:28.221Z,3.80
2018-08-03T04:47:02.104Z,4.00
2018-08-03T04:47:36.083Z,4.13
2018-08-03T04:48:10.791Z,4.20
2018-08-03T04:48:44.724Z,4.00
2018-08-03T04:49:18.801Z,3.93
2018-08-03T04:49:52.685Z,3.47
2018-08-03T04:50:26.603Z,3.50
2018-08-03T04:51:00.441Z,4.30
2018-08-03T04:51:34.342Z,3.83
2018-08-03T04:52:08.927Z,3.80
2018-08-03T04:52:42.787Z,3.73
2018-08-03T04:53:17.055Z,4.60
2018-08-03T04:53:51.253Z,4.00
2018-08-03T04:54:25.181Z,4.60
2018-08-03T04:54:59.422Z,4.50
2018-08-03T04:55:33.706Z,5.13
2018-08-03T04:56:07.574Z,5.00
2018-08-03T04:56:41.409Z,4.43
2018-08-03T04:57:15.321Z,5.00
2018-08-03T04:57:49.539Z,5.60
2018-08-03T04:58:23.873Z,4.77
2018-08-03T04:58:57.741Z,4.80
2018-08-03T04:59:31.684Z,4.50
2018-08-03T05:00:05.861Z,4.77
2018-08-03T05:00:39.753Z,4.63
2018-08-03T05:01:13.969Z,4.40
2018-08-03T05:01:47.829Z,5.40
2018-08-03T05:02:22.371Z,4.97
2018-08-03T05:02:56.587Z,5.17
2018-08-03T05:03:30.478Z,4.43
2018-08-03T05:04:04.681Z,5.03
2018-08-03T05:04:39.008Z,4.40
2018-08-03T05:05:13.389Z,5.17
2018-08-03T05:05:47.269Z,5.53
2018-08-03T05:06:21.157Z,5.20
2018-08-03T05:06:55.358Z,5.30
2018-08-03T05:07:28.959Z,5.60
2018-08-03T05:08:02.736Z,6.10
2018-08-03T05:08:36.353Z,6.00
2018-08-03T05:09:10.446Z,6.17
2018-08-03T05:09:44.373Z,5.17
2018-08-03T05:10:18.899Z,6.07
2018-08-03T05:10:52.799Z,5.27
2018-08-03T05:11:26.969Z,4.80
2018-08-03T05:12:00.837Z,5.23
2018-08-03T05:12:35.293Z,5.90
2018-08-03T05:13:09.143Z,5.07
2018-08-03T05:13:43.027Z,5.20
2018-08-03T05:14:17.236Z,5.47
2018-08-03T05:14:51.079Z,5.43
2018-08-03T05:15:25.582Z,5.53
2018-08-03T05:15:59.635Z,5.00
2018-08-03T05:16:34.251Z,4.90
2018-08-03T05:17:08.569Z,5.30
2018-08-03T05:17:42.437Z,4.83
2018-08-03T05:18:16.347Z,6.00
2018-08-03T05:18:50.633Z,5.40
2018-08-03T05:19:24.953Z,5.33
2018-08-03T05:19:58.807Z,5.37
2018-08-03T05:20:32.681Z,5.10
2018-08-03T05:21:06.624Z,4.60
2018-08-03T05:21:40.489Z,4.40
2018-08-03T05:22:14.401Z,5.50
2018-08-03T05:22:48.302Z,5.33
2018-08-03T05:23:22.197Z,5.80
2018-08-03T05:23:56.415Z,5.80
2018-08-03T05:24:30.367Z,5.23
2018-08-03T05:25:04.999Z,4.63
2018-08-03T05:25:39.881Z,5.17
2018-08-03T05:26:14.107Z,4.70
2018-08-03T05:26:47.997Z,5.00
2018-08-03T05:27:22.447Z,5.67
2018-08-03T05:27:56.324Z,5.43
2018-08-03T05:28:30.693Z,5.50
2018-08-03T05:29:04.595Z,5.73
2018-08-03T05:29:38.579Z,5.10
2018-08-03T05:30:12.571Z,4.83
2018-08-03T05:30:46.973Z,5.00
2018-08-03T05:31:21.411Z,4.67
2018-08-03T05:31:55.333Z,5.80
2018-08-03T05:32:30.263Z,5.53
2018-08-03T05:33:04.169Z,5.50
2018-08-03T05:33:38.076Z,5.10
2018-08-03T05:34:12.001Z,4.80
2018-08-03T05:34:45.987Z,4.47
2018-08-03T05:35:20.226Z,5.60
2018-08-03T05:35:56.106Z,4.80
2018-08-03T05:36:30.560Z,4.80
2018-08-03T05:37:04.571Z,5.07
2018-08-03T05:37:38.841Z,5.90
2018-08-03T05:38:13.148Z,5.60
2018-08-03T05:38:47.689Z,4.87
2018-08-03T05:39:21.604Z,4.80
2018-08-03T05:39:55.583Z,4.83
2018-08-03T05:40:30.513Z,5.20
2018-08-03T05:41:04.719Z,5.50
2018-08-03T05:41:38.783Z,5.60
2018-08-03T05:42:13.021Z,5.60
2018-08-03T05:42:46.907Z,5.47
2018-08-03T05:43:21.090Z,5.10
2018-08-03T05:43:55.636Z,5.30
2018-08-03T05:44:29.624Z,6.00
2018-08-03T05:45:03.273Z,6.10
2018-08-03T05:45:37.170Z,5.90
2018-08-03T05:46:11.629Z,5.57
2018-08-03T05:46:45.619Z,5.40
2018-08-03T05:47:19.497Z,4.90
2018-08-03T05:47:53.359Z,4.87
2018-08-03T05:48:27.191Z,5.03
2018-08-03T05:49:01.030Z,5.27
2018-08-03T05:49:34.888Z,5.80
2018-08-03T05:50:08.800Z,4.70
2018-08-03T05:50:43.013Z,4.70
2018-08-03T05:51:17.451Z,5.23
2018-08-03T05:51:51.717Z,4.13
2018-08-03T05:52:25.947Z,4.77
2018-08-03T05:53:00.531Z,4.63
2018-08-03T05:53:34.394Z,5.50
2018-08-03T05:54:08.365Z,4.80
2018-08-03T05:54:42.213Z,5.20
2018-08-03T05:55:16.134Z,6.00
2018-08-03T05:55:50.679Z,5.20
2018-08-03T05:56:24.860Z,4.70
2018-08-03T05:57:01.454Z,5.33
2018-08-03T05:57:35.331Z,5.23
2018-08-03T05:58:09.245Z,5.10
2018-08-03T05:58:43.119Z,5.23
2018-08-03T05:59:17.013Z,4.43
2018-08-03T05:59:51.067Z,5.10
2018-08-03T06:00:25.038Z,5.60
2018-08-03T06:00:59.366Z,5.80
2018-08-03T06:01:33.255Z,5.10
2018-08-03T06:02:07.909Z,5.70
2018-08-03T06:02:42.165Z,4.20
2018-08-03T06:03:16.118Z,5.40
2018-08-03T06:03:50.169Z,5.13
2018-08-03T06:04:24.203Z,5.10
2018-08-03T06:04:58.753Z,4.60
2018-08-03T06:05:32.719Z,4.90
2018-08-03T06:06:06.625Z,5.00
2018-08-03T06:06:40.890Z,4.90
2018-08-03T06:07:15.188Z,5.60
2018-08-03T06:07:49.379Z,5.80
2018-08-03T06:08:23.326Z,5.07
2018-08-03T06:08:57.237Z,4.67
2018-08-03T06:09:31.583Z,4.53
2018-08-03T06:10:06.033Z,5.40
2018-08-03T06:10:39.919Z,5.07
2018-08-03T06:11:14.494Z,5.17
2018-08-03T06:11:48.500Z,5.17
2018-08-03T06:12:22.787Z,5.50
2018-08-03T06:12:56.974Z,5.30
2018-08-03T06:13:31.265Z,6.17
2018-08-03T06:14:05.698Z,4.70
2018-08-03T06:14:40.267Z,5.30
2018-08-03T06:15:14.123Z,5.40
2018-08-03T06:15:48.374Z,5.13
2018-08-03T06:16:22.612Z,5.37
2018-08-03T06:16:56.473Z,5.30
2018-08-03T06:17:30.666Z,4.50
2018-08-03T06:18:04.419Z,4.20
2018-08-03T06:18:38.239Z,4.23
2018-08-03T06:19:12.115Z,4.97
2018-08-03T06:19:46.436Z,4.17
2018-08-03T06:20:20.679Z,4.97
2018-08-03T06:20:55.615Z,5.23
2018-08-03T06:21:29.565Z,4.70
2018-08-03T06:22:03.472Z,4.83
2018-08-03T06:22:37.719Z,4.17
2018-08-03T06:23:11.587Z,4.80
2018-08-03T06:23:45.907Z,4.20
2018-08-03T06:24:19.790Z,4.00
2018-08-03T06:24:54.329Z,4.50
2018-08-03T06:25:28.548Z,4.50
2018-08-03T06:26:03.130Z,4.90
2018-08-03T06:26:37.036Z,4.50
2018-08-03T06:27:10.953Z,4.37
2018-08-03T06:27:44.859Z,4.50
2018-08-03T06:28:19.406Z,5.07
2018-08-03T06:28:54.354Z,4.50
2018-08-03T06:29:28.753Z,5.73
2018-08-03T06:30:03.418Z,4.63
2018-08-03T06:30:37.611Z,4.70
2018-08-03T06:31:11.494Z,4.37
2018-08-03T06:31:45.718Z,4.30
2018-08-03T06:32:20.272Z,4.87
2018-08-03T06:32:54.462Z,4.43
2018-08-03T06:33:28.346Z,4.23
2018-08-03T06:34:02.289Z,3.90
2018-08-03T06:34:36.110Z,5.60
2018-08-03T06:35:10.287Z,5.23
2018-08-03T06:35:44.554Z,3.90
2018-08-03T06:36:18.459Z,4.43
2018-08-03T06:36:52.314Z,4.90
2018-08-03T06:37:26.249Z,4.50
2018-08-03T06:38:00.167Z,4.70
2018-08-03T06:38:34.045Z,4.47
2018-08-03T06:39:09.160Z,4.43
2018-08-03T06:39:43.027Z,4.60
2018-08-03T06:40:16.900Z,4.80
2018-08-03T06:40:51.091Z,4.43
2018-08-03T06:41:24.834Z,4.60
2018-08-03T06:41:58.961Z,4.90
2018-08-03T06:42:32.841Z,5.07
2018-08-03T06:43:07.080Z,4.60
2018-08-03T06:43:40.955Z,4.30
2018-08-03T06:44:14.831Z,4.23
2018-08-03T06:44:49.053Z,4.50
2018-08-03T06:45:22.923Z,4.93
2018-08-03T06:45:57.615Z,4.50
2018-08-03T06:46:31.502Z,4.40
2018-08-03T06:47:05.730Z,5.40
2018-08-03T06:47:39.668Z,5.17
2018-08-03T06:48:13.566Z,4.70
2018-08-03T06:48:47.462Z,4.43
2018-08-03T06:49:21.331Z,4.07
2018-08-03T06:49:55.863Z,4.10
2018-08-03T06:50:30.916Z,4.40
2018-08-03T06:51:04.803Z,4.77
2018-08-03T06:51:38.973Z,4.13
2018-08-03T06:52:12.834Z,5.00
2018-08-03T06:52:46.698Z,4.47
2018-08-03T06:53:20.610Z,4.43
2018-08-03T06:53:54.876Z,4.30
2018-08-03T06:54:29.606Z,4.53
2018-08-03T06:55:03.778Z,4.40
2018-08-03T06:55:37.630Z,4.60
2018-08-03T06:56:11.885Z,4.87
2018-08-03T06:56:46.072Z,4.57
2018-08-03T06:57:20.277Z,4.50
2018-08-03T06:57:54.136Z,5.20
2018-08-03T06:58:28.073Z,5.00
2018-08-03T06:59:02.128Z,4.67
2018-08-03T06:59:36.015Z,4.40
2018-08-03T07:00:10.198Z,5.43
2018-08-03T07:00:44.350Z,5.53
2018-08-03T07:01:18.385Z,5.17
2018-08-03T07:01:52.622Z,5.17
2018-08-03T07:02:27.467Z,4.90
2018-08-03T07:03:01.307Z,4.70
2018-08-03T07:03:35.536Z,4.57
2018-08-03T07:04:09.428Z,4.40
2018-08-03T07:04:43.638Z,4.33
2018-08-03T07:05:17.802Z,4.40
2018-08-03T07:05:51.886Z,4.23
2018-08-03T07:06:25.934Z,4.83
2018-08-03T07:06:59.870Z,4.37
2018-08-03T07:07:33.738Z,4.13
2018-08-03T07:08:07.652Z,4.30
2018-08-03T07:08:41.596Z,4.27
2018-08-03T07:09:15.508Z,4.47
2018-08-03T07:09:49.424Z,3.73
2018-08-03T07:12:01.028Z,3.87
2018-08-03T07:12:35.222Z,4.10
2018-08-03T07:13:08.870Z,3.70
2018-08-03T07:13:43.020Z,4.23
2018-08-03T07:14:16.912Z,3.47
2018-08-03T07:14:50.827Z,3.90
2018-08-03T07:15:25.232Z,3.90
2018-08-03T07:15:59.421Z,4.20
2018-08-03T07:16:33.264Z,3.13
2018-08-03T07:17:07.542Z,3.80
2018-08-03T07:17:41.772Z,3.77
2018-08-03T07:18:15.708Z,2.90
2018-08-03T07:18:49.656Z,3.20
2018-08-03T07:19:23.564Z,3.30
2018-08-03T07:19:57.413Z,3.40
2018-08-03T07:20:31.611Z,3.53
2018-08-03T07:21:05.690Z,3.37
2018-08-03T07:21:39.570Z,3.60
2018-08-03T07:22:13.424Z,3.53
2018-08-03T07:22:47.294Z,3.30
2018-08-03T07:23:21.190Z,3.37
2018-08-03T07:23:55.672Z,3.10
2018-08-03T07:24:29.552Z,3.20
2018-08-03T07:25:03.448Z,2.97
2018-08-03T07:25:37.546Z,3.17
2018-08-03T07:26:11.446Z,2.90
2018-08-03T07:26:45.659Z,3.10
2018-08-03T07:27:19.615Z,3.17
2018-08-03T07:27:53.980Z,2.87
2018-08-03T07:28:28.188Z,2.77
2018-08-03T07:29:02.122Z,2.80
2018-08-03T07:29:36.335Z,3.30
2018-08-03T07:30:10.371Z,2.80
2018-08-03T07:30:44.587Z,3.10
2018-08-03T07:31:18.807Z,2.53
2018-08-03T07:31:52.700Z,2.70
2018-08-03T07:32:26.655Z,3.00
2018-08-03T07:33:00.521Z,2.73
2018-08-03T07:33:34.422Z,2.50
2018-08-03T07:34:08.432Z,2.80
2018-08-03T07:34:42.316Z,2.83
2018-08-03T07:35:16.256Z,2.57
2018-08-03T07:35:50.212Z,3.10
2018-08-03T07:36:24.457Z,2.50